Aviation Digital Data Service (ADDS)

Output produced by METARs form (1725 UTC 16 June 2019)
found at http://www.aviationweather.gov/metar/data/
 
LJLJ 161700Z 09011KT 9999 VCSH FEW050CB BKN170 27/17 Q1013 NOSIG
TAF LJLJ 161700Z 1618/1718 13005KT 9999 FEW060 SCT100 
     TEMPO 1618/1620 VRB15G25KT 5000 TSRA SCT040CB BKN060 
     BECMG 1618/1620 30003KT 
     BECMG 1709/1712 13007KT SCT040 BKN070 
     PROB30 
     TEMPO 1712/1715 32010KT 5000 TSRA SCT030CB BKN060
       
LJMB 161700Z 34011KT 9999 SCT050 BKN053 22/14 Q1015
TAF LJMB 161700Z 1618/1718 36005KT 9999 FEW040 
     TEMPO 1618/1621 36015G25KT 5000 TSRA SCT040CB BKN060 
     TEMPO 1700/1706 BKN030 
     BECMG 1706/1709 SCT035 BKN060 
     TEMPO 1709/1718 36010KT SHRA SCT030TCU BKN050 
     PROB30 
     TEMPO 1712/1718 5000 TSRA SCT030CB BKN050
       
LJPZ 161700Z 25003KT CAVOK 29/16 Q1011
TAF LJPZ 161700Z 1618/1703 23005KT CAVOK 
     BECMG 1618/1621 05007KT 
     TEMPO 1700/1703 05015KT